Time;durP1;ratioP1;P1;durP2;ratioP2;P2;SDS_P1;SDS_P2;PMS_P1;PMS_P2;Temp;Humidity;BMP_temperature;BMP_pressure;BME280_temperature;BME280_humidity;BME280_pressure;Samples;Min_cycle;Max_cycle;Signal;HPM_P1;HPM_P2
2022/12/16 00:00:25;;;;;;;42.87;28.83;;;;;;;10.05;74.42;94473.03;5089076;28;20189;-44
2022/12/16 00:02:53;;;;;;;45.13;28.63;;;;;;;10.07;74.39;94457.59;5088842;28;20190;-45
2022/12/16 00:05:21;;;;;;;45.63;27.40;;;;;;;10.07;74.55;94467.81;5088723;28;20185;-44
2022/12/16 00:07:48;;;;;;;48.20;27.70;;;;;;;10.06;74.44;94472.13;5089414;28;20205;-46
2022/12/16 00:10:15;;;;;;;45.73;28.13;;;;;;;10.05;74.29;94463.63;5088125;28;20185;-44
2022/12/16 00:12:42;;;;;;;47.43;29.13;;;;;;;10.09;74.45;94448.03;5088879;28;20710;-44
2022/12/16 00:15:09;;;;;;;55.80;28.27;;;;;;;10.08;74.41;94472.78;5087047;28;20181;-44
2022/12/16 00:17:36;;;;;;;51.47;29.93;;;;;;;10.09;74.48;94464.16;5074374;28;20201;-44
2022/12/16 00:20:05;;;;;;;43.20;27.60;;;;;;;10.10;74.49;94465.75;5068633;28;20186;-44
2022/12/16 00:22:32;;;;;;;44.10;27.90;;;;;;;10.09;74.58;94482.03;5068694;28;20186;-43
2022/12/16 00:24:58;;;;;;;43.70;27.70;;;;;;;10.10;74.42;94450.44;5076593;28;20216;-45
2022/12/16 00:27:25;;;;;;;44.53;27.60;;;;;;;10.08;74.58;94454.09;5088825;28;20193;-44
2022/12/16 00:29:52;;;;;;;51.10;29.87;;;;;;;10.10;74.57;94473.41;5088966;28;20197;-44
2022/12/16 00:32:19;;;;;;;50.03;29.87;;;;;;;10.11;74.40;94448.72;5086378;28;20228;-45
2022/12/16 00:34:46;;;;;;;51.80;31.03;;;;;;;10.05;74.52;94461.06;5088639;28;20243;-45
2022/12/16 00:37:14;;;;;;;47.00;29.77;;;;;;;10.11;74.80;94469.16;5088501;28;20190;-45
2022/12/16 00:39:41;;;;;;;53.43;32.17;;;;;;;10.11;74.64;94458.94;5081409;28;20281;-45
2022/12/16 00:42:08;;;;;;;55.10;34.43;;;;;;;10.05;74.64;94457.72;5068468;28;20182;-46
2022/12/16 00:44:34;;;;;;;62.30;35.00;;;;;;;10.09;74.73;94448.81;5068726;28;20263;-45
2022/12/16 00:47:01;;;;;;;55.37;33.87;;;;;;;10.09;74.51;94463.34;5070012;28;20189;-45
2022/12/16 00:49:28;;;;;;;59.60;34.90;;;;;;;10.07;74.53;94462.69;5068851;28;20649;-45
2022/12/16 00:51:55;;;;;;;63.73;37.37;;;;;;;10.04;74.41;94449.25;5068142;28;20340;-46
2022/12/16 00:54:23;;;;;;;67.10;37.80;;;;;;;10.02;74.66;94469.03;5077954;28;20193;-44
2022/12/16 00:56:50;;;;;;;65.77;40.17;;;;;;;10.04;74.49;94443.34;5090651;28;20244;-45
2022/12/16 00:59:16;;;;;;;67.10;40.73;;;;;;;10.01;74.57;94467.41;5092429;28;20251;-45
2022/12/16 01:01:43;;;;;;;70.97;42.23;;;;;;;9.96;74.52;94438.13;5092386;28;20276;-45
2022/12/16 01:04:10;;;;;;;69.63;43.30;;;;;;;9.99;74.60;94440.41;5092166;28;20203;-46
2022/12/16 01:06:37;;;;;;;75.33;43.93;;;;;;;9.98;74.52;94457.47;5091879;28;20194;-44
2022/12/16 01:09:04;;;;;;;68.27;43.13;;;;;;;9.97;74.57;94449.94;5082519;28;20189;-44
2022/12/16 01:11:32;;;;;;;75.37;46.33;;;;;;;9.95;74.53;94456.97;5092490;28;20220;-45
2022/12/16 01:13:59;;;;;;;80.87;47.00;;;;;;;9.96;74.44;94449.13;5092295;28;20214;-43
2022/12/16 01:16:25;;;;;;;77.70;46.77;;;;;;;9.96;74.60;94471.31;5092329;28;20243;-43
2022/12/16 01:18:55;;;;;;;81.63;46.63;;;;;;;9.95;74.66;94462.88;5086431;28;20592;-47
2022/12/16 01:21:21;;;;;;;85.27;47.97;;;;;;;9.95;74.50;94467.16;5072021;28;20190;-47
2022/12/16 01:23:48;;;;;;;77.13;46.37;;;;;;;9.94;74.27;94463.00;5072837;28;20198;-44
2022/12/16 01:26:17;;;;;;;78.80;47.27;;;;;;;9.94;74.64;94440.81;5071832;28;20240;-43
2022/12/16 01:28:48;;;;;;;78.60;48.90;;;;;;;9.93;74.63;94469.03;5072625;28;20182;-44
2022/12/16 01:31:16;;;;;;;81.40;48.83;;;;;;;9.91;74.73;94441.09;5072922;28;20198;-45
2022/12/16 01:33:44;;;;;;;78.83;49.03;;;;;;;9.90;74.82;94457.38;5071270;28;20321;-44
2022/12/16 01:36:11;;;;;;;81.23;51.20;;;;;;;9.90;74.68;94433.59;5071797;28;20650;-44
2022/12/16 01:38:38;;;;;;;88.33;51.07;;;;;;;9.71;74.48;94402.03;5072735;28;20186;-46
2022/12/16 01:41:06;;;;;;;88.07;51.10;;;;;;;9.89;74.65;94437.91;5082375;28;20193;-44
2022/12/16 01:43:35;;;;;;;85.67;51.00;;;;;;;9.79;74.81;94427.69;5091963;28;20722;-44
2022/12/16 01:46:09;;;;;;;82.23;51.23;;;;;;;9.89;74.58;94440.44;5091609;28;20185;-45
2022/12/16 01:48:43;;;;;;;83.23;52.03;;;;;;;9.87;74.66;94431.31;5091626;28;20193;-44
2022/12/16 01:51:15;;;;;;;82.07;51.37;;;;;;;9.90;74.84;94420.81;5084104;28;20201;-43
2022/12/16 01:53:43;;;;;;;85.60;52.67;;;;;;;9.89;74.71;94447.31;5084942;28;20285;-50
2022/12/16 01:56:16;;;;;;;81.57;52.17;;;;;;;9.83;74.69;94420.56;5073427;28;20241;-43
2022/12/16 01:58:44;;;;;;;82.30;50.50;;;;;;;9.88;75.09;94426.03;5071235;28;20661;-45
2022/12/16 02:01:13;;;;;;;87.57;53.07;;;;;;;9.87;74.80;94427.00;5071133;28;20255;-46
2022/12/16 02:03:42;;;;;;;87.90;51.87;;;;;;;9.87;74.93;94436.41;5072138;28;20271;-45
2022/12/16 02:06:08;;;;;;;80.87;50.47;;;;;;;9.86;74.96;94427.94;5090521;28;20193;-45
2022/12/16 02:08:35;;;;;;;85.57;51.83;;;;;;;9.87;74.85;94393.00;5091192;28;20177;-45
2022/12/16 02:11:26;;;;;;;81.03;50.67;;;;;;;9.86;74.91;94410.06;5091281;28;20186;-46
2022/12/16 02:14:12;;;;;;;87.77;50.33;;;;;;;9.85;74.94;94382.94;5089093;28;20201;-45
2022/12/16 02:16:47;;;;;;;83.13;49.27;;;;;;;9.84;75.12;94396.63;5073100;28;20190;-46
2022/12/16 02:19:41;;;;;;;73.37;48.07;;;;;;;9.76;74.93;94394.00;5070577;28;20274;-46
2022/12/16 02:22:25;;;;;;;73.80;46.80;;;;;;;9.84;75.02;94398.38;5070792;28;20680;-44
2022/12/16 02:25:25;;;;;;;75.70;47.57;;;;;;;9.84;75.16;94396.63;5080102;28;20293;-44
2022/12/16 02:28:02;;;;;;;73.23;45.63;;;;;;;9.84;74.94;94411.16;5070704;28;20206;-46
2022/12/16 02:31:09;;;;;;;72.20;45.47;;;;;;;9.83;74.97;94369.47;5070646;28;20648;-45
2022/12/16 02:33:52;;;;;;;72.00;45.40;;;;;;;9.83;75.17;94409.53;5076631;28;20232;-43
2022/12/16 02:36:33;;;;;;;72.43;45.20;;;;;;;9.82;74.89;94393.41;5085011;28;20174;-44
2022/12/16 02:39:05;;;;;;;72.93;43.10;;;;;;;9.82;75.19;94398.53;5070125;28;20666;-45
2022/12/16 02:41:42;;;;;;;71.77;43.57;;;;;;;9.82;75.11;94395.97;5070713;28;20190;-45
2022/12/16 02:44:11;;;;;;;71.50;42.67;;;;;;;9.82;74.97;94428.38;5070275;28;20285;-44
2022/12/16 02:46:42;;;;;;;70.07;42.93;;;;;;;9.80;75.19;94383.34;5072502;28;20598;-45
2022/12/16 02:49:29;;;;;;;64.70;41.03;;;;;;;9.79;75.12;94439.66;5090366;28;20189;-44
2022/12/16 02:51:59;;;;;;;66.27;38.60;;;;;;;9.75;75.36;94440.88;5072022;28;20759;-45
2022/12/16 02:54:26;;;;;;;59.73;38.27;;;;;;;9.75;75.17;94434.00;5070000;28;20312;-43
2022/12/16 02:57:00;;;;;;;55.17;35.60;;;;;;;9.73;75.30;94446.13;5070925;28;20309;-44
2022/12/16 02:59:37;;;;;;;54.37;35.63;;;;;;;9.73;75.19;94440.22;5069783;28;20295;-45
2022/12/16 03:02:12;;;;;;;53.83;35.77;;;;;;;9.75;75.38;94443.44;5070174;28;20189;-46
2022/12/16 03:04:43;;;;;;;49.37;33.10;;;;;;;9.76;75.16;94445.06;5089795;28;20291;-44
2022/12/16 03:07:14;;;;;;;52.17;33.03;;;;;;;9.76;75.13;94422.06;5089864;28;20259;-46
2022/12/16 03:09:42;;;;;;;49.67;32.40;;;;;;;9.74;74.95;94419.66;5089905;28;20276;-42
2022/12/16 03:12:12;;;;;;;50.17;31.47;;;;;;;9.74;75.31;94400.97;5090315;28;20204;-45
2022/12/16 03:14:42;;;;;;;46.03;29.73;;;;;;;9.77;75.12;94406.59;5090003;28;20225;-45
2022/12/16 03:17:13;;;;;;;38.17;27.90;;;;;;;9.78;75.13;94398.00;5089558;28;20568;-46
2022/12/16 03:19:44;;;;;;;45.50;29.37;;;;;;;9.80;75.04;94410.63;5079884;28;20588;-44
2022/12/16 03:22:14;;;;;;;43.43;28.27;;;;;;;9.76;75.08;94389.69;5082740;28;20205;-44
2022/12/16 03:24:42;;;;;;;41.30;26.87;;;;;;;9.80;75.27;94393.56;5089699;28;20633;-44
2022/12/16 03:27:14;;;;;;;42.57;27.07;;;;;;;9.81;75.06;94399.47;5089837;28;20197;-45
2022/12/16 03:29:46;;;;;;;37.13;26.30;;;;;;;9.82;74.79;94387.50;5089682;28;20193;-43
2022/12/16 03:32:22;;;;;;;37.77;26.37;;;;;;;9.79;74.98;94389.38;5089907;28;20259;-45
2022/12/16 03:34:54;;;;;;;38.50;26.13;;;;;;;9.82;74.89;94383.19;5076374;28;20251;-45
2022/12/16 03:37:27;;;;;;;35.90;24.97;;;;;;;9.76;75.15;94381.22;5069330;28;20243;-45
2022/12/16 03:39:58;;;;;;;37.00;25.40;;;;;;;9.80;75.06;94408.06;5089546;28;20205;-48
2022/12/16 03:42:25;;;;;;;36.10;24.37;;;;;;;9.80;75.07;94413.16;5089799;28;20185;-45
2022/12/16 03:44:52;;;;;;;43.73;25.40;;;;;;;9.78;75.04;94428.63;5089401;28;20197;-45
2022/12/16 03:47:20;;;;;;;38.93;24.73;;;;;;;9.77;75.13;94429.59;5089713;28;20525;-45
2022/12/16 03:49:47;;;;;;;36.20;24.37;;;;;;;9.76;75.10;94429.75;5074274;28;20244;-45
2022/12/16 03:52:14;;;;;;;43.17;24.20;;;;;;;9.75;75.10;94428.91;5079074;28;20194;-47
2022/12/16 03:54:41;;;;;;;34.77;24.00;;;;;;;9.73;75.02;94437.66;5089080;28;20221;-46
2022/12/16 03:57:07;;;;;;;39.67;26.03;;;;;;;9.72;75.07;94434.31;5088825;28;20229;-47
2022/12/16 03:59:34;;;;;;;40.33;25.47;;;;;;;9.74;75.10;94437.53;5089094;28;20186;-50
2022/12/16 04:02:01;;;;;;;40.13;25.63;;;;;;;9.73;75.07;94440.22;5089059;28;20555;-44
2022/12/16 04:04:29;;;;;;;37.30;24.17;;;;;;;9.74;75.05;94452.84;5075109;28;20209;-46
2022/12/16 04:09:37;;;;;;;40.20;26.27;;;;;;;9.75;74.84;94434.00;5068673;28;20263;-46
2022/12/16 04:25:49;;;;;;;37.20;25.47;;;;;;;9.74;75.11;94429.84;5068906;28;20229;-44
2022/12/16 04:28:16;;;;;;;32.70;23.33;;;;;;;9.60;75.05;94401.44;5070060;28;20186;-45
2022/12/16 04:30:50;;;;;;;36.67;24.23;;;;;;;9.76;74.81;94432.28;5073504;28;20255;-45
